Time;durP1;ratioP1;P1;durP2;ratioP2;P2;SDS_P1;SDS_P2;PMS_P1;PMS_P2;Temp;Humidity;BMP_temperature;BMP_pressure;BME280_temperature;BME280_humidity;BME280_pressure;Samples;Min_cycle;Max_cycle;Signal;HPM_P1;HPM_P2
2022/10/18 00:02:08;;;;;;;50.05;45.83;;;;;;;2.17;100.00;102888.22;5088935;28;20056;-83
2022/10/18 00:04:38;;;;;;;52.28;48.22;;;;;;;1.77;100.00;102888.13;5087536;28;20040;-79
2022/10/18 00:07:07;;;;;;;49.47;45.22;;;;;;;1.82;100.00;102886.91;5079732;28;20460;-80
2022/10/18 00:09:37;;;;;;;48.53;44.25;;;;;;;2.03;100.00;102876.00;5078626;28;20589;-81
2022/10/18 00:12:09;;;;;;;48.90;45.10;;;;;;;2.15;100.00;102880.47;5080486;28;20450;-79
2022/10/18 00:14:36;;;;;;;54.45;50.53;;;;;;;2.24;100.00;102882.50;5084850;28;20040;-81
2022/10/18 00:17:09;;;;;;;51.78;47.95;;;;;;;2.13;100.00;102878.88;5085817;28;20055;-83
2022/10/18 00:19:39;;;;;;;;;;;;;;;2.03;100.00;102873.38;5084968;28;20044;-81
2022/10/18 00:22:10;;;;;;;49.58;46.08;;;;;;;2.13;100.00;102877.09;5085245;28;19939;-82
2022/10/18 00:24:47;;;;;;;;;;;;;;;;;;;;;
2022/10/18 00:27:20;;;;;;;44.00;40.50;;;;;;;1.87;100.00;102870.03;5087801;28;20066;-82
2022/10/18 00:29:52;;;;;;;48.65;44.67;;;;;;;1.81;100.00;102868.63;5085253;28;20048;-79
2022/10/18 00:32:18;;;;;;;46.88;43.65;;;;;;;1.75;100.00;102874.25;5080770;28;20040;-80
2022/10/18 00:34:54;;;;;;;47.45;43.97;;;;;;;1.83;100.00;102866.78;5085945;28;20368;-79
2022/10/18 00:37:20;;;;;;;45.50;42.17;;;;;;;1.82;100.00;102868.56;5088222;28;20100;-84
2022/10/18 00:39:52;;;;;;;46.28;42.58;;;;;;;1.86;100.00;102861.34;5085564;28;20040;-79
2022/10/18 00:42:24;;;;;;;48.28;44.55;;;;;;;1.80;100.00;102859.09;5086271;28;20048;-79
2022/10/18 00:45:05;;;;;;;45.90;42.28;;;;;;;1.78;100.00;102858.34;5089294;28;20456;-82
2022/10/18 00:47:34;;;;;;;43.45;40.13;;;;;;;1.68;100.00;102854.63;5089257;28;20063;-82
2022/10/18 00:50:08;;;;;;;45.83;42.35;;;;;;;1.59;100.00;102862.13;5086889;28;20464;-80
2022/10/18 00:52:39;;;;;;;47.00;43.58;;;;;;;1.31;100.00;102851.66;5082260;28;20056;-80
2022/10/18 00:55:11;;;;;;;49.90;46.47;;;;;;;1.43;100.00;102853.53;5085198;28;20048;-82
2022/10/18 00:57:41;;;;;;;47.30;44.08;;;;;;;1.52;100.00;102852.97;5093085;28;20051;-80
2022/10/18 01:00:12;;;;;;;49.72;46.15;;;;;;;1.57;100.00;102843.06;5085713;28;20491;-82
2022/10/18 01:02:48;;;;;;;47.25;43.85;;;;;;;1.71;100.00;102852.66;5078441;28;20060;-80
2022/10/18 01:05:20;;;;;;;49.22;45.83;;;;;;;1.75;100.00;102855.91;5082277;28;20408;-81
2022/10/18 01:08:20;;;;;;;45.55;41.85;;;;;;;1.47;100.00;102854.19;5084588;28;20136;-79
2022/10/18 01:10:58;;;;;;;46.72;43.22;;;;;;;1.39;100.00;102852.00;5056258;28;20064;-83
2022/10/18 01:13:41;;;;;;;53.80;49.45;;;;;;;1.45;100.00;102843.78;5084327;28;20072;-79
2022/10/18 01:16:16;;;;;;;52.97;48.97;;;;;;;1.56;100.00;102845.75;5078356;28;20611;-83
2022/10/18 01:18:48;;;;;;;50.78;47.20;;;;;;;1.55;100.00;102842.28;5079051;28;20040;-78
2022/10/18 01:21:37;;;;;;;48.33;44.47;;;;;;;1.47;100.00;102848.94;5081984;28;20044;-79
2022/10/18 01:24:34;;;;;;;47.08;43.65;;;;;;;1.48;100.00;102845.38;5078766;28;20045;-81
2022/10/18 01:27:25;;;;;;;51.25;47.10;;;;;;;1.43;100.00;102840.44;5081577;28;20113;-83
2022/10/18 01:30:07;;;;;;;49.90;46.13;;;;;;;1.49;100.00;102836.59;5081682;28;20052;-80
2022/10/18 01:32:41;;;;;;;46.13;43.03;;;;;;;1.27;100.00;102837.91;5080241;28;20522;-81
2022/10/18 01:35:14;;;;;;;47.67;43.85;;;;;;;1.48;100.00;102833.13;5086116;28;20310;-81
2022/10/18 01:37:44;;;;;;;46.42;43.10;;;;;;;1.33;100.00;102834.94;5089811;28;20044;-83
2022/10/18 01:40:14;;;;;;;48.38;45.03;;;;;;;1.35;100.00;102835.66;5087006;28;20052;-80
2022/10/18 01:42:41;;;;;;;44.78;41.58;;;;;;;1.12;100.00;102831.84;5090511;28;20117;-78
2022/10/18 01:45:10;;;;;;;50.03;46.20;;;;;;;1.05;100.00;102824.44;5079154;28;20078;-81
2022/10/18 01:47:39;;;;;;;48.58;44.90;;;;;;;1.09;100.00;102821.56;5082582;28;20130;-80
2022/10/18 01:50:07;;;;;;;48.72;45.22;;;;;;;1.34;100.00;102814.81;5081296;28;20041;-82
2022/10/18 01:52:34;;;;;;;47.28;43.97;;;;;;;1.00;100.00;102813.38;5088375;28;20052;-78
2022/10/18 01:55:03;;;;;;;48.72;45.22;;;;;;;1.15;100.00;102825.56;5089300;28;20452;-78
2022/10/18 01:57:37;;;;;;;46.80;43.40;;;;;;;0.93;100.00;102815.53;5089030;28;20044;-80
2022/10/18 02:02:52;;;;;;;48.45;44.85;;;;;;;1.10;100.00;102807.53;5060712;22;20196;-82
2022/10/18 02:05:27;;;;;;;48.08;44.70;;;;;;;1.06;100.00;102813.88;5031852;28;20088;-80
2022/10/18 02:08:03;;;;;;;48.60;45.30;;;;;;;0.86;100.00;102812.44;5034771;28;20074;-80
2022/10/18 02:10:36;;;;;;;60.10;55.60;;;;;;;0.67;100.00;102812.69;5030252;28;20042;-82
2022/10/18 02:13:03;;;;;;;56.58;52.33;;;;;;;0.51;100.00;102811.91;5035616;28;20053;-79
2022/10/18 02:15:33;;;;;;;52.47;48.63;;;;;;;0.76;100.00;102819.16;5035235;28;20049;-80
2022/10/18 02:18:07;;;;;;;49.22;45.22;;;;;;;0.66;100.00;102810.16;5035752;28;20571;-79
2022/10/18 02:20:36;;;;;;;46.55;42.88;;;;;;;0.43;100.00;102811.53;5034804;28;20474;-83
2022/10/18 02:23:05;;;;;;;49.53;45.42;;;;;;;0.55;100.00;102807.34;5034023;28;20049;-80
2022/10/18 02:25:34;;;;;;;53.80;49.15;;;;;;;0.63;100.00;102805.09;5034191;28;20119;-82
2022/10/18 02:28:02;;;;;;;52.38;47.65;;;;;;;0.45;100.00;102807.88;5033668;28;20455;-84
2022/10/18 02:30:36;;;;;;;55.85;50.85;;;;;;;0.79;100.00;102808.53;5029866;28;20132;-82
2022/10/18 02:33:11;;;;;;;53.40;48.30;;;;;;;0.69;100.00;102802.97;5033627;28;20049;-80
2022/10/18 02:35:41;;;;;;;55.00;49.83;;;;;;;0.97;100.00;102814.44;5032787;28;20115;-80
2022/10/18 02:38:11;;;;;;;51.35;47.00;;;;;;;0.89;100.00;102807.03;5030297;28;20060;-81
2022/10/18 02:40:38;;;;;;;52.28;48.08;;;;;;;0.86;100.00;102811.63;5030661;28;20123;-81
2022/10/18 02:43:06;;;;;;;47.60;43.92;;;;;;;0.81;100.00;102813.66;5032487;28;20115;-82
2022/10/18 02:45:33;;;;;;;46.25;42.85;;;;;;;0.76;100.00;102816.56;5035281;28;20115;-83
2022/10/18 02:48:00;;;;;;;50.20;46.35;;;;;;;0.88;100.00;102822.84;5031981;28;20056;-80
2022/10/18 02:50:28;;;;;;;49.50;45.80;;;;;;;0.95;100.00;102818.91;5032064;28;20107;-83
2022/10/18 02:52:55;;;;;;;48.92;45.38;;;;;;;0.95;100.00;102813.69;5034502;28;20054;-84
2022/10/18 02:55:22;;;;;;;53.75;49.88;;;;;;;0.94;100.00;102819.00;5028715;28;20050;-83
2022/10/18 02:57:48;;;;;;;48.13;44.50;;;;;;;0.80;100.00;102818.03;5032911;28;20127;-82
2022/10/18 03:00:16;;;;;;;46.63;43.22;;;;;;;0.82;100.00;102820.59;5032502;28;20049;-83
2022/10/18 03:02:42;;;;;;;47.85;44.08;;;;;;;0.96;100.00;102811.91;5030976;28;20119;-83
2022/10/18 03:05:09;;;;;;;47.67;44.22;;;;;;;0.79;100.00;102823.38;5030915;28;20081;-79
2022/10/18 03:07:37;;;;;;;49.53;45.85;;;;;;;0.73;100.00;102821.97;5030427;28;20053;-83
2022/10/18 03:10:05;;;;;;;48.40;44.75;;;;;;;0.55;100.00;102812.59;5026362;28;20046;-81
2022/10/18 03:12:31;;;;;;;51.05;47.30;;;;;;;0.88;100.00;102817.59;5035404;28;20041;-80
2022/10/18 03:14:58;;;;;;;52.08;48.28;;;;;;;0.96;100.00;102812.72;5029458;28;20076;-79
2022/10/18 03:17:25;;;;;;;49.28;45.85;;;;;;;1.01;100.00;102810.69;5031704;28;20057;-84
2022/10/18 03:19:51;;;;;;;48.22;45.03;;;;;;;0.98;100.00;102817.88;5031720;28;20041;-81
2022/10/18 03:22:18;;;;;;;51.13;47.83;;;;;;;0.67;100.00;102807.47;5031291;28;20119;-83
2022/10/18 03:24:46;;;;;;;47.25;43.50;;;;;;;0.72;100.00;102817.66;5028604;28;20120;-80
2022/10/18 03:27:13;;;;;;;46.58;43.08;;;;;;;0.79;100.00;102815.53;5035164;28;20116;-83
2022/10/18 03:29:40;;;;;;;49.50;45.88;;;;;;;0.72;100.00;102814.19;5032462;28;20402;-81
2022/10/18 03:32:19;;;;;;;44.53;41.42;;;;;;;0.65;100.00;102811.09;5032220;28;20053;-82
2022/10/18 03:34:57;;;;;;;48.55;45.20;;;;;;;0.80;100.00;102814.59;5033499;28;20140;-79
2022/10/18 03:37:26;;;;;;;44.40;40.75;;;;;;;0.72;100.00;102815.03;5032631;28;20061;-80
2022/10/18 03:39:56;;;;;;;42.70;39.38;;;;;;;0.77;100.00;102813.00;5033596;28;20382;-83
2022/10/18 03:42:24;;;;;;;48.63;44.72;;;;;;;0.78;100.00;102813.84;5033823;28;20056;-80
2022/10/18 03:44:58;;;;;;;52.67;47.95;;;;;;;0.51;100.00;102811.91;5033227;28;20057;-80
2022/10/18 03:47:28;;;;;;;49.63;45.22;;;;;;;0.64;100.00;102810.25;5026383;28;20053;-81
2022/10/18 03:49:55;;;;;;;47.80;43.97;;;;;;;0.42;100.00;102812.44;5029699;28;20041;-79
2022/10/18 03:52:22;;;;;;;48.33;44.53;;;;;;;0.56;100.00;102803.78;5026428;28;20037;-80
2022/10/18 03:54:51;;;;;;;45.13;41.70;;;;;;;0.49;100.00;102824.25;5030219;28;20049;-80
2022/10/18 03:57:19;;;;;;;68.13;63.05;;;;;;;0.46;100.00;102813.97;5023584;28;20469;-78
2022/10/18 03:59:47;;;;;;;76.88;70.22;;;;;;;0.26;100.00;102809.84;5025499;28;20042;-81
2022/10/18 04:02:14;;;;;;;74.38;68.05;;;;;;;0.17;100.00;102805.16;5024675;28;20061;-80
2022/10/18 04:04:41;;;;;;;72.50;66.18;;;;;;;0.17;100.00;102813.00;5031572;28;20053;-80
2022/10/18 04:07:11;;;;;;;74.82;68.38;;;;;;;0.26;100.00;102803.78;5027886;28;20061;-80
2022/10/18 04:09:37;;;;;;;46.65;42.72;;;;;;;0.51;100.00;102803.22;5027662;28;20057;-81
2022/10/18 04:12:05;;;;;;;45.28;41.83;;;;;;;0.65;100.00;102801.47;5028254;28;20041;-81
2022/10/18 04:14:33;;;;;;;39.08;35.50;;;;;;;-0.06;100.00;102811.66;5027512;28;20054;-81
2022/10/18 04:17:00;;;;;;;45.40;41.88;;;;;;;0.23;100.00;102802.19;5028710;28;20477;-81
2022/10/18 04:19:32;;;;;;;43.15;40.03;;;;;;;0.05;100.00;102803.22;5029548;28;20073;-83
2022/10/18 04:21:59;;;;;;;43.63;39.95;;;;;;;0.09;100.00;102805.59;5023649;28;20045;-81
2022/10/18 04:24:28;;;;;;;43.78;40.40;;;;;;;0.43;100.00;102804.50;5029896;28;20056;-81
2022/10/18 04:26:57;;;;;;;45.50;41.83;;;;;;;0.42;100.00;102810.69;4797233;28;20141;-81
2022/10/18 04:29:34;;;;;;;43.30;39.83;;;;;;;0.31;100.00;102797.38;4947520;28;20061;-80
2022/10/18 04:32:13;;;;;;;43.63;40.03;;;;;;;0.09;100.00;102797.75;5016269;28;20115;-82
2022/10/18 04:34:43;;;;;;;45.63;41.63;;;;;;;0.52;100.00;102794.47;5019869;28;20132;-79
2022/10/18 04:37:10;;;;;;;46.95;43.10;;;;;;;0.62;100.00;102791.19;5028829;28;20049;-81
2022/10/18 04:39:38;;;;;;;46.08;41.65;;;;;;;0.62;100.00;102793.81;5033758;28;20053;-80
2022/10/18 04:42:08;;;;;;;44.20;39.83;;;;;;;0.32;100.00;102792.97;5033145;28;20453;-80
2022/10/18 04:44:37;;;;;;;44.53;39.88;;;;;;;0.47;100.00;102796.50;5030651;28;20041;-79
2022/10/18 04:47:07;;;;;;;41.10;37.05;;;;;;;0.42;100.00;102794.13;5034106;28;20125;-81
2022/10/18 04:49:43;;;;;;;41.92;37.35;;;;;;;0.31;100.00;102800.00;5031492;28;20042;-82
2022/10/18 04:52:14;;;;;;;41.13;36.95;;;;;;;0.47;100.00;102794.72;5028816;28;20401;-81
2022/10/18 04:54:41;;;;;;;40.53;36.72;;;;;;;0.69;100.00;102802.13;5026430;28;20062;-80
2022/10/18 04:57:20;;;;;;;43.55;39.28;;;;;;;1.02;100.00;102799.28;5032700;28;20414;-79
2022/10/18 04:59:50;;;;;;;41.15;37.65;;;;;;;1.18;100.00;102793.97;5034110;28;20063;-80
2022/10/18 05:02:20;;;;;;;41.67;38.20;;;;;;;1.26;100.00;102807.41;5032956;28;20049;-79
2022/10/18 05:04:47;;;;;;;42.65;38.80;;;;;;;1.47;100.00;102801.81;5029294;28;20046;-81
2022/10/18 05:07:14;;;;;;;42.80;39.17;;;;;;;1.58;100.00;102810.69;5025268;28;20116;-79
2022/10/18 05:09:47;;;;;;;43.00;39.40;;;;;;;1.74;100.00;102797.44;5022796;28;20107;-79
2022/10/18 05:12:13;;;;;;;41.45;38.35;;;;;;;1.89;100.00;102797.41;5033894;28;20126;-81
2022/10/18 05:14:47;;;;;;;41.63;38.83;;;;;;;2.05;100.00;102798.09;5025878;28;20050;-81
2022/10/18 05:17:16;;;;;;;41.55;38.45;;;;;;;2.09;100.00;102798.72;5019315;28;20050;-80
2022/10/18 05:19:49;;;;;;;41.95;38.72;;;;;;;2.24;100.00;102808.22;5029766;28;20115;-78
2022/10/18 05:22:16;;;;;;;41.90;38.70;;;;;;;2.16;100.00;102792.16;5030876;28;20465;-83
2022/10/18 05:24:43;;;;;;;42.03;38.65;;;;;;;2.47;100.00;102797.06;5037315;28;20115;-83
2022/10/18 05:27:10;;;;;;;41.55;37.95;;;;;;;2.59;100.00;102794.56;5037385;28;20054;-83
2022/10/18 05:29:39;;;;;;;42.05;38.60;;;;;;;2.81;100.00;102796.56;5036191;28;20470;-83
2022/10/18 05:32:09;;;;;;;42.22;38.95;;;;;;;2.92;100.00;102796.69;5034265;28;20169;-83
2022/10/18 05:34:37;;;;;;;41.33;38.45;;;;;;;3.20;100.00;102790.38;5027903;28;20119;-81
2022/10/18 05:37:04;;;;;;;42.53;39.10;;;;;;;3.18;100.00;102801.00;5033502;28;20099;-79
2022/10/18 05:39:31;;;;;;;42.90;39.72;;;;;;;3.17;100.00;102801.91;5037069;28;20456;-80
2022/10/18 05:41:58;;;;;;;43.30;39.97;;;;;;;3.43;100.00;102801.91;5036466;28;20054;-80
2022/10/18 05:44:29;;;;;;;42.63;39.72;;;;;;;3.78;100.00;102809.03;5034458;28;20142;-79
2022/10/18 05:46:56;;;;;;;40.38;37.60;;;;;;;3.67;100.00;102815.91;5037210;28;20049;-78
2022/10/18 05:49:29;;;;;;;40.67;37.47;;;;;;;3.96;100.00;102815.59;5034706;28;20053;-79
2022/10/18 05:51:59;;;;;;;40.45;37.50;;;;;;;4.01;100.00;102821.38;5033410;28;20119;-79
2022/10/18 05:54:26;;;;;;;41.35;38.42;;;;;;;4.02;100.00;102822.22;5028550;28;20115;-82
2022/10/18 05:56:53;;;;;;;42.40;39.20;;;;;;;4.13;100.00;102819.66;5034378;28;20049;-79
2022/10/18 05:59:21;;;;;;;41.65;38.38;;;;;;;4.72;100.00;102817.00;5034095;28;20496;-81
2022/10/18 06:01:49;;;;;;;43.50;40.40;;;;;;;4.66;100.00;102816.59;5030045;28;20061;-83
2022/10/18 06:04:16;;;;;;;42.92;39.65;;;;;;;5.12;100.00;102827.09;5030761;28;20486;-80
2022/10/18 06:06:47;;;;;;;43.47;40.60;;;;;;;5.18;100.00;102823.16;5030136;28;20056;-79
2022/10/18 06:09:15;;;;;;;42.05;39.20;;;;;;;5.21;100.00;102825.56;5031457;28;20374;-82
2022/10/18 06:11:42;;;;;;;43.70;40.70;;;;;;;5.59;100.00;102822.53;5030957;28;20049;-82
2022/10/18 06:14:10;;;;;;;43.28;40.28;;;;;;;5.79;100.00;102815.69;5031940;28;20049;-79
2022/10/18 06:16:51;;;;;;;41.10;38.50;;;;;;;6.02;100.00;102816.50;5027228;28;20042;-79
2022/10/18 06:19:23;;;;;;;41.45;38.78;;;;;;;6.18;100.00;102811.63;5030529;28;20397;-78
2022/10/18 06:21:56;;;;;;;43.80;41.00;;;;;;;6.29;100.00;102821.28;5031363;28;20882;-80
2022/10/18 06:24:24;;;;;;;;;;;;;;;6.66;100.00;102818.25;5031394;28;20379;-84
2022/10/18 06:26:50;;;;;;;43.38;40.45;;;;;;;6.71;100.00;102816.03;5029313;28;19921;-83
2022/10/18 06:29:26;;;;;;;44.10;40.30;;;;;;;6.88;100.00;102812.81;5026972;28;20049;-83
2022/10/18 06:31:54;;;;;;;44.10;41.05;;;;;;;7.12;100.00;102809.06;5029275;28;20045;-79
2022/10/18 06:34:23;;;;;;;42.80;39.90;;;;;;;7.86;100.00;102813.16;5029870;28;20046;-82
2022/10/18 06:36:50;;;;;;;41.78;39.17;;;;;;;7.83;100.00;102814.28;5031271;28;20111;-82
2022/10/18 06:39:17;;;;;;;41.47;38.63;;;;;;;7.45;100.00;102812.41;5031007;28;20474;-82
2022/10/18 06:41:45;;;;;;;47.08;42.30;;;;;;;7.94;100.00;102808.03;5028295;28;20060;-80
2022/10/18 06:44:13;;;;;;;40.60;38.10;;;;;;;7.92;100.00;102810.81;5035330;28;20119;-82
2022/10/18 06:46:42;;;;;;;43.88;39.22;;;;;;;8.27;100.00;102812.09;5034700;28;20053;-79
2022/10/18 06:49:09;;;;;;;41.80;39.20;;;;;;;8.68;100.00;102794.22;5034588;28;20049;-80
2022/10/18 06:51:37;;;;;;;41.40;38.90;;;;;;;9.13;100.00;102794.38;5035004;28;20199;-80
2022/10/18 06:54:04;;;;;;;42.03;39.42;;;;;;;8.33;100.00;102793.00;5032754;28;20045;-83
2022/10/18 06:56:34;;;;;;;41.92;39.22;;;;;;;9.55;100.00;102798.38;5033503;28;20556;-81
2022/10/18 06:59:04;;;;;;;41.35;38.15;;;;;;;9.88;100.00;102796.06;5034757;28;20045;-79
2022/10/18 07:01:31;;;;;;;42.60;39.95;;;;;;;9.93;100.00;102797.28;5027083;28;20053;-79
2022/10/18 07:03:58;;;;;;;43.28;40.38;;;;;;;10.11;100.00;102793.81;5032864;28;20490;-82
2022/10/18 07:06:25;;;;;;;41.88;39.05;;;;;;;10.69;100.00;102799.44;4952715;28;20561;-79
2022/10/18 07:08:54;;;;;;;43.47;40.55;;;;;;;11.06;100.00;102792.19;5032204;28;20050;-83
2022/10/18 07:11:22;;;;;;;45.28;42.05;;;;;;;11.14;100.00;102793.06;4994405;28;20165;-80
2022/10/18 07:13:53;;;;;;;44.53;41.72;;;;;;;11.95;100.00;102796.97;5023049;28;20080;-82
2022/10/18 07:16:21;;;;;;;46.03;42.80;;;;;;;11.85;100.00;102801.63;5033631;28;20115;-80
2022/10/18 07:18:51;;;;;;;43.10;40.45;;;;;;;12.28;100.00;102795.16;5031534;28;20053;-80
2022/10/18 07:21:19;;;;;;;44.67;41.80;;;;;;;12.84;100.00;102782.78;5026243;28;20100;-82
2022/10/18 07:23:47;;;;;;;45.45;42.35;;;;;;;13.27;100.00;102786.00;5027341;28;20061;-78
2022/10/18 07:26:17;;;;;;;43.72;41.10;;;;;;;13.88;100.00;102779.97;5028981;28;20046;-85
2022/10/18 07:28:45;;;;;;;44.03;40.83;;;;;;;13.67;100.00;102781.44;5029616;28;20450;-79
2022/10/18 07:31:14;;;;;;;43.55;40.85;;;;;;;13.69;100.00;102781.28;5028487;28;20072;-78
2022/10/18 07:33:42;;;;;;;44.45;41.45;;;;;;;14.14;100.00;102777.78;5026079;28;20045;-80
2022/10/18 07:36:12;;;;;;;44.63;41.72;;;;;;;14.57;100.00;102779.94;5027753;28;20451;-80
2022/10/18 07:38:39;;;;;;;44.05;41.25;;;;;;;14.66;100.00;102773.50;5026408;28;20456;-83
2022/10/18 07:41:10;;;;;;;44.03;41.28;;;;;;;15.07;100.00;102768.53;5026098;28;20048;-79
2022/10/18 13:05:56;;;;;;;42.00;38.58;;;;;;;23.98;36.32;102286.13;5002135;28;20509;-79
2022/10/18 13:08:38;;;;;;;41.53;38.28;;;;;;;24.65;36.47;102273.88;5028206;28;20448;-78
2022/10/18 13:11:29;;;;;;;40.67;37.63;;;;;;;25.02;35.06;102279.22;5025984;28;20052;-80
2022/10/18 13:14:39;;;;;;;39.90;36.95;;;;;;;25.33;34.92;102273.94;5027108;28;21829;-82
2022/10/18 13:17:17;;;;;;;43.70;39.40;;;;;;;24.80;36.29;102275.88;5027007;28;20042;-81
2022/10/18 13:19:57;;;;;;;40.90;37.65;;;;;;;24.79;36.10;102266.91;5030729;28;20049;-79
2022/10/18 13:22:38;;;;;;;41.67;38.67;;;;;;;24.41;37.36;102268.00;5023929;28;20045;-80
2022/10/18 13:25:13;;;;;;;43.08;40.08;;;;;;;24.92;35.24;102265.59;5024355;28;20108;-80
2022/10/18 13:27:47;;;;;;;43.33;40.25;;;;;;;23.92;36.29;102265.47;5028035;28;20111;-82
2022/10/18 13:30:45;;;;;;;41.10;38.00;;;;;;;23.71;36.43;102249.00;5031578;28;20045;-81
2022/10/18 13:33:30;;;;;;;47.17;42.88;;;;;;;23.16;38.44;102258.16;5032367;28;20575;-81
2022/10/18 13:35:59;;;;;;;45.38;41.78;;;;;;;22.68;40.06;102258.88;5029757;28;20049;-81
2022/10/18 13:38:47;;;;;;;42.95;39.70;;;;;;;23.91;37.09;102247.56;5034076;28;20049;-80
2022/10/18 13:41:16;;;;;;;42.50;39.03;;;;;;;23.50;37.04;102247.13;5029580;28;20046;-79
2022/10/18 13:44:22;;;;;;;45.17;41.35;;;;;;;24.14;37.00;102238.22;5031649;28;20437;-82
2022/10/18 13:47:11;;;;;;;44.65;40.72;;;;;;;24.36;34.96;102232.69;5029395;28;20054;-81
2022/10/18 13:50:06;;;;;;;46.95;43.40;;;;;;;23.82;36.38;102230.94;5033288;28;20127;-81
2022/10/18 13:52:54;;;;;;;43.88;40.67;;;;;;;21.90;37.78;102223.56;5018439;28;20057;-82
2022/10/18 13:55:56;;;;;;;47.00;43.85;;;;;;;23.80;36.34;102230.38;5036631;28;20049;-82
2022/10/18 13:58:36;;;;;;;43.13;40.03;;;;;;;23.06;37.52;102218.22;5010802;28;20544;-81
2022/10/18 14:01:20;;;;;;;41.13;38.00;;;;;;;21.70;37.64;102215.94;5018370;28;20441;-83
2022/10/18 14:04:24;;;;;;;39.67;36.80;;;;;;;23.16;38.51;102205.84;5029472;28;20118;-83
2022/10/18 14:06:52;;;;;;;41.40;38.17;;;;;;;22.66;39.44;102202.25;5010349;28;20045;-82
2022/10/18 14:09:23;;;;;;;42.78;38.72;;;;;;;21.95;40.83;102200.13;5021530;28;20045;-83
2022/10/18 14:12:08;;;;;;;40.17;36.78;;;;;;;21.15;41.04;102201.13;5025088;28;20053;-80
2022/10/18 14:14:42;;;;;;;41.10;37.83;;;;;;;21.67;40.69;102200.22;5035283;28;20037;-80
2022/10/18 14:17:22;;;;;;;42.08;38.97;;;;;;;22.18;40.01;102193.75;5037683;28;20456;-79
2022/10/18 14:19:57;;;;;;;42.10;39.08;;;;;;;20.99;40.16;102200.00;5032453;28;20053;-83
2022/10/18 14:22:35;;;;;;;44.45;40.85;;;;;;;20.58;41.95;102195.66;5037475;28;20478;-83
2022/10/18 14:25:26;;;;;;;43.42;40.13;;;;;;;21.41;41.42;102190.81;5024588;28;20042;-83
2022/10/18 14:28:17;;;;;;;40.10;36.78;;;;;;;19.52;44.48;102182.03;5018413;28;20046;-81
2022/10/18 14:30:57;;;;;;;40.15;36.80;;;;;;;20.73;43.75;102176.25;5034375;28;20050;-82
2022/10/18 14:33:35;;;;;;;43.30;39.85;;;;;;;20.06;44.11;102174.78;5037778;28;20049;-83
2022/10/18 14:36:10;;;;;;;42.15;38.83;;;;;;;19.87;48.55;102176.72;5024674;28;20045;-81
2022/10/18 14:38:45;;;;;;;44.80;40.30;;;;;;;19.13;46.64;102165.38;5034958;28;20517;-83
2022/10/18 14:41:18;;;;;;;41.95;38.35;;;;;;;19.52;49.91;102167.75;5029170;28;20457;-81
2022/10/18 14:43:47;;;;;;;42.78;38.72;;;;;;;19.11;50.63;102170.16;5028655;28;20046;-82
2022/10/18 14:46:24;;;;;;;41.95;38.15;;;;;;;18.71;55.49;102161.75;5031341;28;20133;-81
2022/10/18 14:49:04;;;;;;;42.05;38.53;;;;;;;18.12;56.48;102157.81;5035509;28;20143;-82
2022/10/18 14:51:38;;;;;;;41.42;37.65;;;;;;;17.56;64.83;102165.66;5027332;28;20151;-82
2022/10/18 14:54:10;;;;;;;43.38;39.20;;;;;;;16.33;74.16;102154.19;5027257;28;20046;-83
2022/10/18 14:56:47;;;;;;;46.33;41.88;;;;;;;16.10;85.63;102154.66;5031534;28;20049;-81
2022/10/18 14:59:28;;;;;;;105.05;44.58;;;;;;;15.73;93.09;102156.91;5028190;28;20398;-82
2022/10/18 15:01:58;;;;;;;75.88;43.90;;;;;;;16.03;93.71;102150.09;5027044;28;20075;-81
2022/10/18 15:04:34;;;;;;;61.15;47.47;;;;;;;15.88;94.59;102143.31;5032304;28;20119;-79
2022/10/18 15:09:49;;;;;;;61.38;50.33;;;;;;;15.24;100.00;102147.34;5020045;28;20450;-81
2022/10/18 15:12:21;;;;;;;55.90;50.17;;;;;;;14.99;100.00;102147.06;5027634;28;20058;-81
2022/10/18 15:15:19;;;;;;;57.10;51.10;;;;;;;14.84;100.00;102136.50;5033018;28;20045;-83
2022/10/18 15:17:54;;;;;;;57.25;51.45;;;;;;;14.64;100.00;102134.56;5032482;28;20289;-79
2022/10/18 15:20:43;;;;;;;;;;;;;;;;;;;;;
2022/10/18 15:23:33;;;;;;;55.28;48.50;;;;;;;14.33;100.00;102128.81;5021606;28;20050;-80
2022/10/18 15:26:05;;;;;;;55.55;50.10;;;;;;;14.28;100.00;102132.09;5025905;28;20064;-81
2022/10/18 15:28:52;;;;;;;53.72;47.67;;;;;;;13.94;100.00;102133.66;5031423;28;20050;-81
2022/10/18 15:31:38;;;;;;;56.75;51.42;;;;;;;13.28;100.00;102125.91;5030088;28;20497;-81
2022/10/18 15:34:23;;;;;;;54.53;49.00;;;;;;;13.25;100.00;102120.97;5024433;28;20410;-79
2022/10/18 15:37:14;;;;;;;53.85;48.17;;;;;;;13.10;100.00;102121.97;5035193;28;20371;-81
2022/10/18 15:39:43;;;;;;;50.83;45.75;;;;;;;12.63;100.00;102126.75;5033305;28;20387;-81
2022/10/18 15:42:48;;;;;;;;;;;;;;;;;;;;;
2022/10/18 15:45:41;;;;;;;52.67;47.55;;;;;;;12.52;100.00;102125.34;5032530;28;20053;-81
2022/10/18 15:51:40;;;;;;;49.63;45.05;;;;;;;11.98;100.00;102130.09;5130866;27;20702;-81
2022/10/18 15:54:31;;;;;;;48.22;44.13;;;;;;;11.78;100.00;102133.25;5110830;28;20052;-81
2022/10/18 15:57:11;;;;;;;46.63;42.88;;;;;;;11.67;100.00;102136.31;5110895;28;20491;-83
2022/10/18 15:59:59;;;;;;;71.28;48.58;;;;;;;10.98;100.00;102137.13;5109165;28;20487;-79
2022/10/18 16:02:32;;;;;;;77.60;53.38;;;;;;;11.03;100.00;102133.91;5113362;28;20133;-82
2022/10/18 16:05:09;;;;;;;;;;;;;;;;;;;;;
2022/10/18 16:07:53;;;;;;;84.00;64.88;;;;;;;10.73;100.00;102147.00;5110816;28;20406;-83
2022/10/18 16:10:27;;;;;;;146.05;81.82;;;;;;;10.80;100.00;102141.81;5107308;28;20048;-82
2022/10/18 16:13:08;;;;;;;172.90;98.35;;;;;;;10.61;100.00;102145.72;5111140;28;20051;-82
2022/10/18 16:16:00;;;;;;;173.43;90.07;;;;;;;10.57;100.00;102143.59;5109500;28;20139;-81
2022/10/18 16:19:00;;;;;;;136.93;81.43;;;;;;;10.43;100.00;102142.44;5109683;28;20051;-82
2022/10/18 16:24:29;;;;;;;135.27;83.03;;;;;;;10.39;100.00;102152.59;5106261;28;20416;-81
2022/10/18 16:27:03;;;;;;;123.95;85.15;;;;;;;10.28;100.00;102142.31;5116991;28;20067;-81
2022/10/18 16:29:42;;;;;;;116.78;81.03;;;;;;;10.02;100.00;102145.16;5110513;28;20135;-85
2022/10/18 16:32:09;;;;;;;116.50;79.95;;;;;;;9.74;100.00;102142.00;5115100;28;20514;-81
2022/10/18 16:34:56;;;;;;;111.20;75.35;;;;;;;9.83;100.00;102135.69;5109801;28;20047;-82
2022/10/18 16:44:12;;;;;;;86.20;63.20;;;;;;;9.29;100.00;102132.66;5109617;28;20054;-81
2022/10/18 16:47:07;;;;;;;95.53;67.57;;;;;;;9.32;100.00;102141.16;5106720;28;20044;-80
2022/10/18 16:49:36;;;;;;;131.20;72.60;;;;;;;9.30;100.00;102142.28;5108527;28;20058;-79
2022/10/18 16:52:12;;;;;;;105.10;66.03;;;;;;;9.33;100.00;102140.16;5113015;28;20051;-82
2022/10/18 16:54:44;;;;;;;351.95;140.90;;;;;;;9.47;100.00;102133.38;5113570;28;20043;-82
2022/10/18 17:00:29;;;;;;;227.18;106.55;;;;;;;8.88;100.00;102135.22;5109997;28;20067;-84
2022/10/18 17:03:28;;;;;;;117.97;74.15;;;;;;;8.67;100.00;102132.97;5094614;28;20555;-81
2022/10/18 17:06:00;;;;;;;109.75;71.72;;;;;;;8.78;100.00;102131.88;5087646;28;20060;-82
2022/10/18 17:08:41;;;;;;;85.37;62.73;;;;;;;8.62;100.00;102129.97;5097549;28;20052;-82
2022/10/18 17:11:24;;;;;;;83.93;61.53;;;;;;;8.57;100.00;102135.75;5096259;28;20083;-82
2022/10/18 17:14:01;;;;;;;75.72;59.40;;;;;;;8.67;100.00;102139.09;5098653;28;20062;-80
2022/10/18 17:20:22;;;;;;;65.63;55.08;;;;;;;8.03;100.00;102137.69;5074684;28;20063;-84
2022/10/18 17:22:50;;;;;;;62.65;54.67;;;;;;;8.12;100.00;102130.66;5098663;28;20044;-79
2022/10/18 17:25:45;;;;;;;;;;;;;;;;;;;;;
2022/10/18 17:28:40;;;;;;;;;;;;;;;;;;;;;
2022/10/18 17:31:17;;;;;;;161.18;108.18;;;;;;;8.13;100.00;102121.72;5086868;28;20464;-84
2022/10/18 17:33:45;;;;;;;132.70;91.50;;;;;;;8.02;100.00;102128.94;5094914;28;20063;-81
2022/10/18 17:36:21;;;;;;;106.35;80.30;;;;;;;7.77;100.00;102130.53;5086319;28;20495;-82